sensor_id;sensor_type;location;lat;lon;timestamp;P1;durP1;ratioP1;P2;durP2;ratioP2
35128;SDS011;21301;43.626;10.580;2024-02-15T00:02:20;11.45;;;6.65;;
35128;SDS011;21301;43.626;10.580;2024-02-15T00:04:46;12.45;;;6.18;;
35128;SDS011;21301;43.626;10.580;2024-02-15T00:07:11;11.15;;;6.43;;
35128;SDS011;21301;43.626;10.580;2024-02-15T00:09:37;9.57;;;5.75;;
35128;SDS011;21301;43.626;10.580;2024-02-15T00:12:02;19.45;;;12.15;;
35128;SDS011;21301;43.626;10.580;2024-02-15T00:14:28;13.82;;;8.77;;
35128;SDS011;21301;43.626;10.580;2024-02-15T00:16:54;11.48;;;6.35;;
35128;SDS011;21301;43.626;10.580;2024-02-15T00:19:20;9.43;;;5.63;;
35128;SDS011;21301;43.626;10.580;2024-02-15T00:21:47;13.32;;;6.30;;
35128;SDS011;21301;43.626;10.580;2024-02-15T00:24:13;9.38;;;5.30;;
35128;SDS011;21301;43.626;10.580;2024-02-15T00:26:40;9.65;;;5.35;;
35128;SDS011;21301;43.626;10.580;2024-02-15T00:29:07;8.82;;;4.70;;
35128;SDS011;21301;43.626;10.580;2024-02-15T00:31:33;8.30;;;4.88;;
35128;SDS011;21301;43.626;10.580;2024-02-15T00:34:00;7.40;;;4.78;;
35128;SDS011;21301;43.626;10.580;2024-02-15T00:36:28;8.82;;;4.30;;
35128;SDS011;21301;43.626;10.580;2024-02-15T00:38:55;11.25;;;5.43;;
35128;SDS011;21301;43.626;10.580;2024-02-15T00:41:22;10.30;;;4.90;;
35128;SDS011;21301;43.626;10.580;2024-02-15T00:43:48;8.40;;;4.78;;
35128;SDS011;21301;43.626;10.580;2024-02-15T00:46:15;7.40;;;5.13;;
35128;SDS011;21301;43.626;10.580;2024-02-15T00:48:41;10.60;;;5.75;;
35128;SDS011;21301;43.626;10.580;2024-02-15T00:51:07;9.35;;;4.75;;
35128;SDS011;21301;43.626;10.580;2024-02-15T00:53:33;11.32;;;5.20;;
35128;SDS011;21301;43.626;10.580;2024-02-15T00:55:58;8.05;;;4.88;;
35128;SDS011;21301;43.626;10.580;2024-02-15T00:58:26;9.93;;;4.72;;
35128;SDS011;21301;43.626;10.580;2024-02-15T01:00:52;9.25;;;4.70;;
35128;SDS011;21301;43.626;10.580;2024-02-15T01:03:21;11.20;;;4.95;;
35128;SDS011;21301;43.626;10.580;2024-02-15T01:05:46;8.68;;;5.00;;
35128;SDS011;21301;43.626;10.580;2024-02-15T01:08:12;9.77;;;5.32;;
35128;SDS011;21301;43.626;10.580;2024-02-15T01:10:37;9.25;;;5.50;;
35128;SDS011;21301;43.626;10.580;2024-02-15T01:13:03;11.38;;;6.35;;
35128;SDS011;21301;43.626;10.580;2024-02-15T01:15:29;12.93;;;6.35;;
35128;SDS011;21301;43.626;10.580;2024-02-15T01:17:54;13.90;;;6.90;;
35128;SDS011;21301;43.626;10.580;2024-02-15T01:20:22;13.90;;;7.68;;
35128;SDS011;21301;43.626;10.580;2024-02-15T01:22:48;13.27;;;6.75;;
35128;SDS011;21301;43.626;10.580;2024-02-15T01:25:15;12.80;;;7.30;;
35128;SDS011;21301;43.626;10.580;2024-02-15T01:27:42;11.70;;;6.72;;
35128;SDS011;21301;43.626;10.580;2024-02-15T01:30:07;9.52;;;5.47;;
35128;SDS011;21301;43.626;10.580;2024-02-15T01:32:33;8.60;;;5.40;;
35128;SDS011;21301;43.626;10.580;2024-02-15T01:34:59;9.48;;;5.53;;
35128;SDS011;21301;43.626;10.580;2024-02-15T01:37:25;9.25;;;5.63;;
35128;SDS011;21301;43.626;10.580;2024-02-15T01:39:50;10.35;;;5.95;;
35128;SDS011;21301;43.626;10.580;2024-02-15T01:42:16;9.57;;;4.97;;
35128;SDS011;21301;43.626;10.580;2024-02-15T01:44:42;9.70;;;5.45;;
35128;SDS011;21301;43.626;10.580;2024-02-15T01:47:09;8.23;;;4.60;;
35128;SDS011;21301;43.626;10.580;2024-02-15T01:49:36;11.15;;;5.50;;
35128;SDS011;21301;43.626;10.580;2024-02-15T01:52:02;9.90;;;4.45;;
35128;SDS011;21301;43.626;10.580;2024-02-15T01:54:32;6.57;;;4.38;;
35128;SDS011;21301;43.626;10.580;2024-02-15T01:56:58;7.90;;;4.68;;
35128;SDS011;21301;43.626;10.580;2024-02-15T01:59:23;17.40;;;5.38;;
35128;SDS011;21301;43.626;10.580;2024-02-15T02:01:50;8.32;;;4.25;;
35128;SDS011;21301;43.626;10.580;2024-02-15T02:04:16;7.53;;;4.32;;
35128;SDS011;21301;43.626;10.580;2024-02-15T02:06:42;7.35;;;3.78;;
35128;SDS011;21301;43.626;10.580;2024-02-15T02:09:11;8.82;;;4.25;;
35128;SDS011;21301;43.626;10.580;2024-02-15T02:11:47;7.22;;;4.15;;
35128;SDS011;21301;43.626;10.580;2024-02-15T02:14:13;8.25;;;4.20;;
35128;SDS011;21301;43.626;10.580;2024-02-15T02:16:39;11.23;;;4.53;;
35128;SDS011;21301;43.626;10.580;2024-02-15T02:19:05;7.07;;;3.95;;
35128;SDS011;21301;43.626;10.580;2024-02-15T02:21:34;7.82;;;4.32;;
35128;SDS011;21301;43.626;10.580;2024-02-15T02:24:04;7.90;;;4.28;;
35128;SDS011;21301;43.626;10.580;2024-02-15T02:26:39;9.05;;;5.22;;
35128;SDS011;21301;43.626;10.580;2024-02-15T02:29:05;9.75;;;4.70;;
35128;SDS011;21301;43.626;10.580;2024-02-15T02:31:34;12.02;;;5.13;;
35128;SDS011;21301;43.626;10.580;2024-02-15T02:34:00;12.23;;;5.63;;
35128;SDS011;21301;43.626;10.580;2024-02-15T02:36:28;9.23;;;5.22;;
35128;SDS011;21301;43.626;10.580;2024-02-15T02:38:54;15.20;;;4.80;;
35128;SDS011;21301;43.626;10.580;2024-02-15T02:41:23;14.98;;;4.80;;
35128;SDS011;21301;43.626;10.580;2024-02-15T02:43:58;9.00;;;4.22;;
35128;SDS011;21301;43.626;10.580;2024-02-15T02:46:23;13.93;;;4.93;;
35128;SDS011;21301;43.626;10.580;2024-02-15T02:48:52;16.48;;;4.95;;
35128;SDS011;21301;43.626;10.580;2024-02-15T02:51:17;9.50;;;4.28;;
35128;SDS011;21301;43.626;10.580;2024-02-15T02:53:43;33.08;;;5.28;;
35128;SDS011;21301;43.626;10.580;2024-02-15T02:56:10;20.33;;;5.20;;
35128;SDS011;21301;43.626;10.580;2024-02-15T02:58:38;10.77;;;5.05;;
35128;SDS011;21301;43.626;10.580;2024-02-15T03:01:07;13.57;;;6.03;;
35128;SDS011;21301;43.626;10.580;2024-02-15T03:03:33;14.25;;;6.82;;
35128;SDS011;21301;43.626;10.580;2024-02-15T03:05:59;17.90;;;7.47;;
35128;SDS011;21301;43.626;10.580;2024-02-15T03:08:24;24.85;;;7.68;;
35128;SDS011;21301;43.626;10.580;2024-02-15T03:10:50;36.50;;;7.18;;
35128;SDS011;21301;43.626;10.580;2024-02-15T03:13:17;19.48;;;6.97;;
35128;SDS011;21301;43.626;10.580;2024-02-15T03:15:44;37.70;;;7.18;;
35128;SDS011;21301;43.626;10.580;2024-02-15T03:18:13;12.25;;;6.30;;
35128;SDS011;21301;43.626;10.580;2024-02-15T03:20:42;12.88;;;6.15;;
35128;SDS011;21301;43.626;10.580;2024-02-15T03:23:08;12.15;;;5.22;;
35128;SDS011;21301;43.626;10.580;2024-02-15T03:25:34;15.73;;;7.03;;
35128;SDS011;21301;43.626;10.580;2024-02-15T03:27:59;21.65;;;6.75;;
35128;SDS011;21301;43.626;10.580;2024-02-15T03:30:29;11.30;;;6.28;;
35128;SDS011;21301;43.626;10.580;2024-02-15T03:32:59;13.30;;;5.90;;
35128;SDS011;21301;43.626;10.580;2024-02-15T03:35:25;15.70;;;6.45;;
35128;SDS011;21301;43.626;10.580;2024-02-15T03:37:54;16.33;;;6.47;;
35128;SDS011;21301;43.626;10.580;2024-02-15T03:40:20;11.85;;;6.10;;
35128;SDS011;21301;43.626;10.580;2024-02-15T03:42:49;17.73;;;5.28;;
35128;SDS011;21301;43.626;10.580;2024-02-15T03:45:15;13.20;;;5.70;;
35128;SDS011;21301;43.626;10.580;2024-02-15T03:47:42;11.55;;;5.55;;
35128;SDS011;21301;43.626;10.580;2024-02-15T03:50:08;16.40;;;5.90;;
35128;SDS011;21301;43.626;10.580;2024-02-15T03:52:39;13.60;;;5.95;;
35128;SDS011;21301;43.626;10.580;2024-02-15T03:55:06;12.30;;;5.07;;
35128;SDS011;21301;43.626;10.580;2024-02-15T03:57:32;14.27;;;5.38;;
35128;SDS011;21301;43.626;10.580;2024-02-15T03:59:58;16.35;;;5.05;;
35128;SDS011;21301;43.626;10.580;2024-02-15T04:02:24;12.52;;;5.82;;
35128;SDS011;21301;43.626;10.580;2024-02-15T04:04:56;23.27;;;5.90;;
35128;SDS011;21301;43.626;10.580;2024-02-15T04:07:22;15.45;;;6.13;;
35128;SDS011;21301;43.626;10.580;2024-02-15T04:09:50;26.15;;;6.65;;
35128;SDS011;21301;43.626;10.580;2024-02-15T04:12:16;13.57;;;5.50;;
35128;SDS011;21301;43.626;10.580;2024-02-15T04:14:43;17.23;;;5.97;;
35128;SDS011;21301;43.626;10.580;2024-02-15T04:17:11;20.17;;;6.32;;
35128;SDS011;21301;43.626;10.580;2024-02-15T04:19:40;13.35;;;6.07;;
35128;SDS011;21301;43.626;10.580;2024-02-15T04:22:06;20.67;;;6.47;;
35128;SDS011;21301;43.626;10.580;2024-02-15T04:24:35;21.90;;;7.82;;
35128;SDS011;21301;43.626;10.580;2024-02-15T04:27:06;24.40;;;6.97;;
35128;SDS011;21301;43.626;10.580;2024-02-15T04:29:34;21.02;;;6.05;;
35128;SDS011;21301;43.626;10.580;2024-02-15T04:32:01;18.83;;;6.10;;
35128;SDS011;21301;43.626;10.580;2024-02-15T04:34:27;19.38;;;7.15;;
35128;SDS011;21301;43.626;10.580;2024-02-15T04:36:53;26.50;;;6.15;;
35128;SDS011;21301;43.626;10.580;2024-02-15T04:39:19;23.52;;;6.80;;
35128;SDS011;21301;43.626;10.580;2024-02-15T04:41:53;15.70;;;5.85;;
35128;SDS011;21301;43.626;10.580;2024-02-15T04:44:20;20.20;;;6.57;;
35128;SDS011;21301;43.626;10.580;2024-02-15T04:46:47;28.30;;;6.25;;
35128;SDS011;21301;43.626;10.580;2024-02-15T04:49:14;21.35;;;5.85;;
35128;SDS011;21301;43.626;10.580;2024-02-15T04:51:40;10.63;;;4.47;;
35128;SDS011;21301;43.626;10.580;2024-02-15T04:54:07;19.27;;;6.20;;
35128;SDS011;21301;43.626;10.580;2024-02-15T04:56:33;9.77;;;5.07;;
35128;SDS011;21301;43.626;10.580;2024-02-15T04:59:01;27.48;;;4.65;;
35128;SDS011;21301;43.626;10.580;2024-02-15T05:01:29;21.00;;;5.38;;
35128;SDS011;21301;43.626;10.580;2024-02-15T05:03:58;10.40;;;4.13;;
35128;SDS011;21301;43.626;10.580;2024-02-15T05:06:23;12.30;;;4.68;;
35128;SDS011;21301;43.626;10.580;2024-02-15T05:08:54;32.65;;;5.93;;
35128;SDS011;21301;43.626;10.580;2024-02-15T05:11:22;13.57;;;4.68;;
35128;SDS011;21301;43.626;10.580;2024-02-15T05:13:49;10.60;;;4.05;;
35128;SDS011;21301;43.626;10.580;2024-02-15T05:16:18;10.57;;;4.03;;
35128;SDS011;21301;43.626;10.580;2024-02-15T05:18:44;13.45;;;5.35;;
35128;SDS011;21301;43.626;10.580;2024-02-15T05:21:11;10.77;;;5.05;;
35128;SDS011;21301;43.626;10.580;2024-02-15T05:23:36;11.13;;;5.20;;
35128;SDS011;21301;43.626;10.580;2024-02-15T05:26:05;14.40;;;4.97;;
35128;SDS011;21301;43.626;10.580;2024-02-15T05:28:32;10.50;;;5.05;;
35128;SDS011;21301;43.626;10.580;2024-02-15T05:31:14;12.10;;;4.40;;
35128;SDS011;21301;43.626;10.580;2024-02-15T05:33:45;14.80;;;4.97;;
35128;SDS011;21301;43.626;10.580;2024-02-15T05:36:14;10.25;;;4.53;;
35128;SDS011;21301;43.626;10.580;2024-02-15T05:38:40;13.27;;;4.53;;
35128;SDS011;21301;43.626;10.580;2024-02-15T05:41:06;14.95;;;4.95;;
35128;SDS011;21301;43.626;10.580;2024-02-15T05:43:36;9.75;;;4.43;;
35128;SDS011;21301;43.626;10.580;2024-02-15T05:46:05;14.73;;;5.18;;
35128;SDS011;21301;43.626;10.580;2024-02-15T05:48:36;9.23;;;3.90;;
35128;SDS011;21301;43.626;10.580;2024-02-15T05:51:06;24.48;;;4.60;;
35128;SDS011;21301;43.626;10.580;2024-02-15T05:53:36;24.20;;;4.53;;
35128;SDS011;21301;43.626;10.580;2024-02-15T05:56:05;15.73;;;4.85;;
35128;SDS011;21301;43.626;10.580;2024-02-15T05:58:38;13.27;;;3.85;;
35128;SDS011;21301;43.626;10.580;2024-02-15T06:01:05;12.90;;;3.10;;
35128;SDS011;21301;43.626;10.580;2024-02-15T06:03:32;12.88;;;3.97;;
35128;SDS011;21301;43.626;10.580;2024-02-15T06:05:59;17.80;;;4.57;;
35128;SDS011;21301;43.626;10.580;2024-02-15T06:08:27;13.40;;;5.65;;
35128;SDS011;21301;43.626;10.580;2024-02-15T06:10:54;18.02;;;4.97;;
35128;SDS011;21301;43.626;10.580;2024-02-15T06:13:20;14.88;;;4.97;;
35128;SDS011;21301;43.626;10.580;2024-02-15T06:15:47;24.98;;;4.22;;
35128;SDS011;21301;43.626;10.580;2024-02-15T06:18:18;17.00;;;4.22;;
35128;SDS011;21301;43.626;10.580;2024-02-15T06:20:49;17.33;;;4.78;;
35128;SDS011;21301;43.626;10.580;2024-02-15T06:23:18;33.80;;;4.70;;
35128;SDS011;21301;43.626;10.580;2024-02-15T06:25:46;22.85;;;5.40;;
35128;SDS011;21301;43.626;10.580;2024-02-15T06:28:17;27.52;;;4.72;;
35128;SDS011;21301;43.626;10.580;2024-02-15T06:31:01;50.72;;;6.95;;
35128;SDS011;21301;43.626;10.580;2024-02-15T06:33:45;24.67;;;4.75;;
35128;SDS011;21301;43.626;10.580;2024-02-15T06:36:30;26.27;;;6.00;;
35128;SDS011;21301;43.626;10.580;2024-02-15T06:39:14;14.52;;;4.93;;
35128;SDS011;21301;43.626;10.580;2024-02-15T06:41:58;24.00;;;6.45;;
35128;SDS011;21301;43.626;10.580;2024-02-15T06:44:26;21.27;;;6.38;;
35128;SDS011;21301;43.626;10.580;2024-02-15T06:46:53;25.17;;;7.18;;
35128;SDS011;21301;43.626;10.580;2024-02-15T06:49:19;25.33;;;6.50;;
35128;SDS011;21301;43.626;10.580;2024-02-15T06:51:47;27.35;;;8.35;;
35128;SDS011;21301;43.626;10.580;2024-02-15T06:54:13;28.83;;;6.40;;
35128;SDS011;21301;43.626;10.580;2024-02-15T06:56:39;42.95;;;7.18;;
35128;SDS011;21301;43.626;10.580;2024-02-15T06:59:08;27.67;;;6.40;;
35128;SDS011;21301;43.626;10.580;2024-02-15T07:01:35;31.27;;;6.95;;
35128;SDS011;21301;43.626;10.580;2024-02-15T07:04:03;56.88;;;8.40;;
35128;SDS011;21301;43.626;10.580;2024-02-15T07:06:30;16.75;;;6.45;;
35128;SDS011;21301;43.626;10.580;2024-02-15T07:08:57;19.88;;;6.35;;
35128;SDS011;21301;43.626;10.580;2024-02-15T07:11:23;30.83;;;6.40;;
35128;SDS011;21301;43.626;10.580;2024-02-15T07:13:49;33.03;;;7.90;;
35128;SDS011;21301;43.626;10.580;2024-02-15T07:16:18;16.20;;;7.18;;
35128;SDS011;21301;43.626;10.580;2024-02-15T07:18:43;12.85;;;7.38;;
35128;SDS011;21301;43.626;10.580;2024-02-15T07:21:13;13.95;;;8.27;;
35128;SDS011;21301;43.626;10.580;2024-02-15T07:23:42;11.98;;;6.72;;
35128;SDS011;21301;43.626;10.580;2024-02-15T07:26:08;17.08;;;7.80;;
35128;SDS011;21301;43.626;10.580;2024-02-15T07:28:34;15.65;;;6.40;;
35128;SDS011;21301;43.626;10.580;2024-02-15T07:31:00;11.40;;;6.97;;
35128;SDS011;21301;43.626;10.580;2024-02-15T07:33:28;9.88;;;5.68;;
35128;SDS011;21301;43.626;10.580;2024-02-15T07:35:54;10.43;;;5.93;;
35128;SDS011;21301;43.626;10.580;2024-02-15T07:38:20;12.20;;;5.82;;
35128;SDS011;21301;43.626;10.580;2024-02-15T07:40:48;9.90;;;5.53;;
35128;SDS011;21301;43.626;10.580;2024-02-15T07:43:14;12.63;;;5.78;;
35128;SDS011;21301;43.626;10.580;2024-02-15T07:45:42;14.93;;;6.43;;
35128;SDS011;21301;43.626;10.580;2024-02-15T07:48:08;11.40;;;5.80;;
35128;SDS011;21301;43.626;10.580;2024-02-15T07:50:34;11.38;;;6.35;;
35128;SDS011;21301;43.626;10.580;2024-02-15T07:53:02;10.35;;;5.72;;
35128;SDS011;21301;43.626;10.580;2024-02-15T07:55:31;12.30;;;5.75;;
35128;SDS011;21301;43.626;10.580;2024-02-15T07:57:57;13.18;;;6.97;;
35128;SDS011;21301;43.626;10.580;2024-02-15T08:00:25;12.02;;;5.30;;
35128;SDS011;21301;43.626;10.580;2024-02-15T08:02:53;14.82;;;6.22;;
35128;SDS011;21301;43.626;10.580;2024-02-15T08:05:19;17.38;;;6.35;;
35128;SDS011;21301;43.626;10.580;2024-02-15T08:07:46;27.25;;;7.10;;
35128;SDS011;21301;43.626;10.580;2024-02-15T08:10:14;12.93;;;5.47;;
35128;SDS011;21301;43.626;10.580;2024-02-15T08:12:41;26.20;;;7.93;;
35128;SDS011;21301;43.626;10.580;2024-02-15T08:15:09;17.90;;;6.18;;
35128;SDS011;21301;43.626;10.580;2024-02-15T08:17:37;18.05;;;5.90;;
35128;SDS011;21301;43.626;10.580;2024-02-15T08:20:04;16.15;;;5.10;;
35128;SDS011;21301;43.626;10.580;2024-02-15T08:22:32;19.13;;;6.10;;
35128;SDS011;21301;43.626;10.580;2024-02-15T08:24:59;20.95;;;6.03;;
35128;SDS011;21301;43.626;10.580;2024-02-15T08:27:25;16.48;;;5.93;;
35128;SDS011;21301;43.626;10.580;2024-02-15T08:29:51;15.07;;;4.90;;
35128;SDS011;21301;43.626;10.580;2024-02-15T08:32:16;10.25;;;5.60;;
35128;SDS011;21301;43.626;10.580;2024-02-15T08:34:43;16.55;;;5.20;;
35128;SDS011;21301;43.626;10.580;2024-02-15T08:37:09;12.38;;;5.28;;
35128;SDS011;21301;43.626;10.580;2024-02-15T08:39:35;12.68;;;6.57;;
35128;SDS011;21301;43.626;10.580;2024-02-15T08:42:00;17.25;;;7.25;;
35128;SDS011;21301;43.626;10.580;2024-02-15T08:44:26;19.08;;;7.90;;
35128;SDS011;21301;43.626;10.580;2024-02-15T08:46:52;16.95;;;8.27;;
35128;SDS011;21301;43.626;10.580;2024-02-15T08:49:17;18.92;;;8.75;;
35128;SDS011;21301;43.626;10.580;2024-02-15T08:51:44;19.48;;;9.50;;
35128;SDS011;21301;43.626;10.580;2024-02-15T08:54:11;24.42;;;11.02;;
35128;SDS011;21301;43.626;10.580;2024-02-15T08:56:37;23.75;;;12.63;;
35128;SDS011;21301;43.626;10.580;2024-02-15T08:59:02;29.42;;;11.43;;
35128;SDS011;21301;43.626;10.580;2024-02-15T09:01:28;19.85;;;10.05;;
35128;SDS011;21301;43.626;10.580;2024-02-15T09:03:55;18.60;;;10.63;;
35128;SDS011;21301;43.626;10.580;2024-02-15T09:06:21;25.23;;;12.95;;
35128;SDS011;21301;43.626;10.580;2024-02-15T09:08:48;24.00;;;13.50;;
35128;SDS011;21301;43.626;10.580;2024-02-15T09:11:13;30.08;;;14.02;;
35128;SDS011;21301;43.626;10.580;2024-02-15T09:13:39;25.30;;;11.60;;
35128;SDS011;21301;43.626;10.580;2024-02-15T09:16:05;23.30;;;10.55;;
35128;SDS011;21301;43.626;10.580;2024-02-15T09:18:31;18.42;;;8.88;;
35128;SDS011;21301;43.626;10.580;2024-02-15T09:20:58;14.05;;;7.95;;
35128;SDS011;21301;43.626;10.580;2024-02-15T09:23:24;16.08;;;9.05;;
35128;SDS011;21301;43.626;10.580;2024-02-15T09:25:50;12.85;;;7.97;;
35128;SDS011;21301;43.626;10.580;2024-02-15T09:28:18;12.05;;;6.78;;
35128;SDS011;21301;43.626;10.580;2024-02-15T09:30:47;11.45;;;7.10;;
35128;SDS011;21301;43.626;10.580;2024-02-15T09:33:16;14.63;;;7.75;;
35128;SDS011;21301;43.626;10.580;2024-02-15T09:35:44;14.68;;;7.30;;
35128;SDS011;21301;43.626;10.580;2024-02-15T09:38:09;13.45;;;8.23;;
35128;SDS011;21301;43.626;10.580;2024-02-15T09:40:35;10.98;;;7.60;;
35128;SDS011;21301;43.626;10.580;2024-02-15T09:43:01;14.60;;;10.02;;
35128;SDS011;21301;43.626;10.580;2024-02-15T09:45:26;14.23;;;9.38;;
35128;SDS011;21301;43.626;10.580;2024-02-15T09:47:55;14.32;;;9.43;;
35128;SDS011;21301;43.626;10.580;2024-02-15T09:50:31;24.23;;;11.65;;
35128;SDS011;21301;43.626;10.580;2024-02-15T09:53:01;15.95;;;9.85;;
35128;SDS011;21301;43.626;10.580;2024-02-15T09:55:28;24.05;;;12.27;;
35128;SDS011;21301;43.626;10.580;2024-02-15T09:57:54;20.08;;;12.75;;
35128;SDS011;21301;43.626;10.580;2024-02-15T10:00:21;24.95;;;14.55;;
35128;SDS011;21301;43.626;10.580;2024-02-15T10:02:47;22.15;;;14.13;;
35128;SDS011;21301;43.626;10.580;2024-02-15T10:05:17;24.70;;;14.18;;
35128;SDS011;21301;43.626;10.580;2024-02-15T10:07:43;24.20;;;14.60;;
35128;SDS011;21301;43.626;10.580;2024-02-15T10:10:17;24.00;;;14.07;;
35128;SDS011;21301;43.626;10.580;2024-02-15T10:12:48;24.40;;;12.27;;
35128;SDS011;21301;43.626;10.580;2024-02-15T10:18:00;25.17;;;14.73;;
35128;SDS011;21301;43.626;10.580;2024-02-15T10:20:27;29.35;;;14.02;;
35128;SDS011;21301;43.626;10.580;2024-02-15T10:25:34;26.10;;;15.82;;
35128;SDS011;21301;43.626;10.580;2024-02-15T10:30:33;25.52;;;15.68;;
35128;SDS011;21301;43.626;10.580;2024-02-15T10:33:02;24.75;;;14.95;;
35128;SDS011;21301;43.626;10.580;2024-02-15T10:35:28;25.30;;;14.10;;
35128;SDS011;21301;43.626;10.580;2024-02-15T10:38:16;25.90;;;14.63;;
35128;SDS011;21301;43.626;10.580;2024-02-15T10:40:40;23.90;;;14.63;;
35128;SDS011;21301;43.626;10.580;2024-02-15T10:43:11;23.73;;;13.55;;
35128;SDS011;21301;43.626;10.580;2024-02-15T10:45:38;23.63;;;14.15;;
35128;SDS011;21301;43.626;10.580;2024-02-15T10:48:08;24.35;;;14.40;;
35128;SDS011;21301;43.626;10.580;2024-02-15T10:50:34;23.17;;;15.00;;
35128;SDS011;21301;43.626;10.580;2024-02-15T10:53:03;23.15;;;14.88;;
35128;SDS011;21301;43.626;10.580;2024-02-15T10:55:44;30.52;;;16.23;;
35128;SDS011;21301;43.626;10.580;2024-02-15T10:58:16;28.38;;;17.38;;
35128;SDS011;21301;43.626;10.580;2024-02-15T11:00:45;27.92;;;16.55;;
35128;SDS011;21301;43.626;10.580;2024-02-15T11:03:14;26.10;;;16.38;;
35128;SDS011;21301;43.626;10.580;2024-02-15T11:05:51;28.27;;;17.02;;
35128;SDS011;21301;43.626;10.580;2024-02-15T11:08:20;31.10;;;19.45;;
35128;SDS011;21301;43.626;10.580;2024-02-15T11:10:47;26.60;;;17.27;;
35128;SDS011;21301;43.626;10.580;2024-02-15T11:13:13;32.60;;;18.67;;
35128;SDS011;21301;43.626;10.580;2024-02-15T11:15:41;27.75;;;16.60;;
35128;SDS011;21301;43.626;10.580;2024-02-15T11:18:10;26.70;;;18.00;;
35128;SDS011;21301;43.626;10.580;2024-02-15T11:23:03;30.35;;;18.33;;
35128;SDS011;21301;43.626;10.580;2024-02-15T11:25:33;30.73;;;18.70;;
35128;SDS011;21301;43.626;10.580;2024-02-15T11:30:59;32.78;;;19.08;;
35128;SDS011;21301;43.626;10.580;2024-02-15T11:33:28;31.00;;;21.52;;
35128;SDS011;21301;43.626;10.580;2024-02-15T11:38:33;41.80;;;23.90;;
35128;SDS011;21301;43.626;10.580;2024-02-15T11:43:47;45.05;;;23.92;;
35128;SDS011;21301;43.626;10.580;2024-02-15T11:46:25;42.15;;;26.95;;
35128;SDS011;21301;43.626;10.580;2024-02-15T11:51:28;35.15;;;22.90;;
35128;SDS011;21301;43.626;10.580;2024-02-15T11:54:02;34.10;;;22.40;;
35128;SDS011;21301;43.626;10.580;2024-02-15T11:56:51;36.78;;;22.92;;
35128;SDS011;21301;43.626;10.580;2024-02-15T11:59:19;32.80;;;19.48;;
35128;SDS011;21301;43.626;10.580;2024-02-15T12:01:57;35.97;;;22.15;;
35128;SDS011;21301;43.626;10.580;2024-02-15T12:04:41;30.00;;;20.00;;
35128;SDS011;21301;43.626;10.580;2024-02-15T12:07:26;33.22;;;20.00;;
35128;SDS011;21301;43.626;10.580;2024-02-15T12:10:17;33.40;;;19.73;;
35128;SDS011;21301;43.626;10.580;2024-02-15T12:13:02;32.95;;;20.33;;
35128;SDS011;21301;43.626;10.580;2024-02-15T12:15:58;30.40;;;18.52;;
35128;SDS011;21301;43.626;10.580;2024-02-15T12:18:44;29.42;;;17.65;;
35128;SDS011;21301;43.626;10.580;2024-02-15T12:21:14;28.80;;;17.63;;
35128;SDS011;21301;43.626;10.580;2024-02-15T12:23:44;26.52;;;17.63;;
35128;SDS011;21301;43.626;10.580;2024-02-15T12:26:10;26.50;;;17.50;;
35128;SDS011;21301;43.626;10.580;2024-02-15T12:28:39;28.65;;;16.52;;
35128;SDS011;21301;43.626;10.580;2024-02-15T12:31:08;25.13;;;15.93;;
35128;SDS011;21301;43.626;10.580;2024-02-15T12:33:35;23.35;;;15.40;;
35128;SDS011;21301;43.626;10.580;2024-02-15T12:36:05;24.00;;;15.35;;
35128;SDS011;21301;43.626;10.580;2024-02-15T12:38:32;25.42;;;14.73;;
35128;SDS011;21301;43.626;10.580;2024-02-15T12:41:02;22.13;;;14.13;;
35128;SDS011;21301;43.626;10.580;2024-02-15T12:43:28;26.30;;;15.45;;
35128;SDS011;21301;43.626;10.580;2024-02-15T12:45:55;27.85;;;14.93;;
35128;SDS011;21301;43.626;10.580;2024-02-15T12:48:23;20.15;;;13.45;;
35128;SDS011;21301;43.626;10.580;2024-02-15T12:50:48;19.50;;;12.95;;
35128;SDS011;21301;43.626;10.580;2024-02-15T12:53:20;19.95;;;13.52;;
35128;SDS011;21301;43.626;10.580;2024-02-15T12:55:52;21.73;;;14.98;;
35128;SDS011;21301;43.626;10.580;2024-02-15T12:58:22;18.63;;;12.23;;
35128;SDS011;21301;43.626;10.580;2024-02-15T13:00:51;24.90;;;13.50;;
35128;SDS011;21301;43.626;10.580;2024-02-15T13:03:20;19.00;;;12.68;;
35128;SDS011;21301;43.626;10.580;2024-02-15T13:05:47;21.60;;;13.05;;
35128;SDS011;21301;43.626;10.580;2024-02-15T13:08:14;20.45;;;12.40;;
35128;SDS011;21301;43.626;10.580;2024-02-15T13:10:41;20.05;;;12.95;;
35128;SDS011;21301;43.626;10.580;2024-02-15T13:13:27;19.58;;;13.40;;
35128;SDS011;21301;43.626;10.580;2024-02-15T13:15:56;20.95;;;12.98;;
35128;SDS011;21301;43.626;10.580;2024-02-15T13:18:23;20.52;;;11.38;;
35128;SDS011;21301;43.626;10.580;2024-02-15T13:20:48;19.00;;;11.77;;
35128;SDS011;21301;43.626;10.580;2024-02-15T13:23:17;22.85;;;13.35;;
35128;SDS011;21301;43.626;10.580;2024-02-15T13:25:50;22.38;;;14.18;;
35128;SDS011;21301;43.626;10.580;2024-02-15T13:28:21;21.10;;;13.15;;
35128;SDS011;21301;43.626;10.580;2024-02-15T13:30:48;27.10;;;17.08;;
35128;SDS011;21301;43.626;10.580;2024-02-15T13:33:15;22.08;;;12.93;;
35128;SDS011;21301;43.626;10.580;2024-02-15T13:35:41;20.95;;;13.13;;
35128;SDS011;21301;43.626;10.580;2024-02-15T13:38:07;24.25;;;13.68;;
35128;SDS011;21301;43.626;10.580;2024-02-15T13:40:39;19.42;;;11.18;;
35128;SDS011;21301;43.626;10.580;2024-02-15T13:43:05;19.55;;;11.30;;
35128;SDS011;21301;43.626;10.580;2024-02-15T13:45:32;21.20;;;10.45;;
35128;SDS011;21301;43.626;10.580;2024-02-15T13:48:04;14.80;;;10.70;;
35128;SDS011;21301;43.626;10.580;2024-02-15T13:50:35;18.05;;;11.45;;
35128;SDS011;21301;43.626;10.580;2024-02-15T13:53:03;19.50;;;10.10;;
35128;SDS011;21301;43.626;10.580;2024-02-15T13:55:29;17.50;;;9.60;;
35128;SDS011;21301;43.626;10.580;2024-02-15T13:57:56;14.30;;;9.15;;
35128;SDS011;21301;43.626;10.580;2024-02-15T14:00:22;13.52;;;9.57;;
35128;SDS011;21301;43.626;10.580;2024-02-15T14:02:49;13.20;;;9.27;;
35128;SDS011;21301;43.626;10.580;2024-02-15T14:05:17;12.40;;;8.35;;
35128;SDS011;21301;43.626;10.580;2024-02-15T14:07:55;15.07;;;9.00;;
35128;SDS011;21301;43.626;10.580;2024-02-15T14:10:25;12.73;;;8.40;;
35128;SDS011;21301;43.626;10.580;2024-02-15T14:12:52;11.15;;;6.57;;
35128;SDS011;21301;43.626;10.580;2024-02-15T14:15:29;10.63;;;6.80;;
35128;SDS011;21301;43.626;10.580;2024-02-15T14:17:55;11.88;;;7.18;;
35128;SDS011;21301;43.626;10.580;2024-02-15T14:20:28;14.57;;;6.93;;
35128;SDS011;21301;43.626;10.580;2024-02-15T14:22:54;8.30;;;5.00;;
35128;SDS011;21301;43.626;10.580;2024-02-15T14:25:22;11.02;;;6.00;;
35128;SDS011;21301;43.626;10.580;2024-02-15T14:27:55;8.13;;;4.50;;
35128;SDS011;21301;43.626;10.580;2024-02-15T14:30:22;10.65;;;5.80;;
35128;SDS011;21301;43.626;10.580;2024-02-15T14:33:07;8.32;;;5.05;;
35128;SDS011;21301;43.626;10.580;2024-02-15T14:35:37;11.02;;;5.30;;
35128;SDS011;21301;43.626;10.580;2024-02-15T14:38:08;10.25;;;6.65;;
35128;SDS011;21301;43.626;10.580;2024-02-15T14:40:45;14.23;;;8.70;;
35128;SDS011;21301;43.626;10.580;2024-02-15T14:43:22;10.38;;;6.97;;
35128;SDS011;21301;43.626;10.580;2024-02-15T14:45:53;9.15;;;6.10;;
35128;SDS011;21301;43.626;10.580;2024-02-15T14:48:21;11.43;;;6.38;;